Time;durP1;ratioP1;P1;durP2;ratioP2;P2;SDS_P1;SDS_P2;PMS_P1;PMS_P2;Temp;Humidity;BMP_temperature;BMP_pressure;BME280_temperature;BME280_humidity;BME280_pressure;Samples;Min_cycle;Max_cycle;Signal;HPM_P1;HPM_P2
2023/11/09 00:01:10;;;;;;;5.13;3.70;;;;;;;14.89;78.04;100139.22;5009869;28;20061;-44
2023/11/09 00:03:36;;;;;;;6.93;3.88;;;;;;;14.76;78.53;100138.56;5010437;28;20113;-44
2023/11/09 00:06:02;;;;;;;8.07;4.18;;;;;;;14.63;79.49;100137.03;5010229;28;20044;-45
2023/11/09 00:08:30;;;;;;;6.22;4.20;;;;;;;14.85;78.24;100134.94;5009445;28;20396;-45
2023/11/09 00:10:56;;;;;;;5.97;3.92;;;;;;;14.78;78.43;100130.66;5009849;28;20034;-43
2023/11/09 00:13:21;;;;;;;6.50;4.10;;;;;;;14.67;78.10;100138.72;5009588;28;20056;-48
2023/11/09 00:15:47;;;;;;;5.55;4.38;;;;;;;14.79;78.68;100127.16;5010052;28;20036;-45
2023/11/09 00:18:21;;;;;;;6.10;3.80;;;;;;;15.10;77.13;100117.03;5009380;28;20065;-44
2023/11/09 00:20:51;;;;;;;6.05;3.85;;;;;;;15.01;77.69;100120.66;5009940;28;20045;-45
2023/11/09 00:23:17;;;;;;;5.57;4.00;;;;;;;14.98;77.46;100118.97;5009426;28;20038;-44
2023/11/09 00:25:42;;;;;;;5.43;4.13;;;;;;;15.03;77.32;100117.13;5009728;28;20037;-46
2023/11/09 00:28:08;;;;;;;6.20;4.00;;;;;;;15.14;76.92;100114.31;5009066;28;20033;-44
2023/11/09 00:30:33;;;;;;;6.47;4.32;;;;;;;14.86;77.64;100115.69;5009523;28;20044;-44
2023/11/09 00:32:58;;;;;;;6.43;4.40;;;;;;;14.89;78.06;100111.22;5009510;28;20117;-47
2023/11/09 00:35:24;;;;;;;6.20;4.50;;;;;;;14.91;78.24;100113.84;5009236;28;20116;-49
2023/11/09 00:37:50;;;;;;;7.05;4.55;;;;;;;14.54;79.03;100110.91;5009588;28;20034;-45
2023/11/09 00:40:16;;;;;;;5.88;4.45;;;;;;;14.69;79.53;100104.59;5009170;28;20062;-48
2023/11/09 00:42:42;;;;;;;7.25;5.18;;;;;;;14.53;79.74;100106.56;5009504;28;20026;-45
2023/11/09 00:45:08;;;;;;;5.93;4.70;;;;;;;14.74;79.27;100098.38;5008978;28;20460;-48
2023/11/09 00:47:33;;;;;;;7.57;5.00;;;;;;;14.92;78.93;100107.72;5009921;23;20058;-47
2023/11/09 00:49:59;;;;;;;6.65;4.97;;;;;;;15.11;78.07;100095.13;4990307;28;20046;-47
2023/11/09 00:52:24;;;;;;;9.57;5.40;;;;;;;15.02;78.09;100094.41;4988722;28;20126;-46
2023/11/09 00:54:51;;;;;;;8.43;4.90;;;;;;;14.97;78.18;100090.13;4990967;28;20042;-44
2023/11/09 00:57:16;;;;;;;7.82;4.97;;;;;;;14.63;79.97;100100.31;4981891;28;20035;-46
2023/11/09 00:59:46;;;;;;;9.90;5.53;;;;;;;14.47;80.99;100114.53;4982488;28;20042;-48
2023/11/09 01:02:12;;;;;;;9.32;5.53;;;;;;;14.29;82.15;100131.34;4980886;28;20034;-47
2023/11/09 01:04:37;;;;;;;10.85;2.90;;;;;;;14.61;80.08;100123.06;4978962;28;20041;-46
2023/11/09 01:07:04;;;;;;;5.70;2.00;;;;;;;14.41;79.76;100127.72;4978563;28;20417;-45
2023/11/09 01:09:30;;;;;;;4.00;1.20;;;;;;;14.13;80.26;100133.31;4980217;28;20038;-47
2023/11/09 01:11:56;;;;;;;3.75;1.08;;;;;;;13.72;81.39;100132.97;4982669;28;20101;-47
2023/11/09 01:14:22;;;;;;;3.42;1.05;;;;;;;13.98;80.04;100138.75;4984617;28;20457;-44
2023/11/09 01:16:47;;;;;;;2.42;0.90;;;;;;;13.98;80.25;100143.97;4986241;28;20050;-47
2023/11/09 01:19:13;;;;;;;3.00;1.10;;;;;;;14.22;78.73;100146.28;4984645;28;20096;-48
2023/11/09 01:21:38;;;;;;;5.65;1.20;;;;;;;14.03;79.46;100144.78;4982382;28;20034;-49
2023/11/09 01:24:04;;;;;;;2.95;0.88;;;;;;;14.37;78.44;100150.50;4982501;28;20042;-48
2023/11/09 01:26:29;;;;;;;2.53;0.80;;;;;;;13.85;80.15;100152.00;4985557;28;20041;-50
2023/11/09 01:28:55;;;;;;;2.97;0.80;;;;;;;14.36;78.30;100153.97;4985690;28;20034;-49
2023/11/09 01:31:21;;;;;;;3.80;0.85;;;;;;;14.49;77.53;100146.84;4982878;28;20046;-45
2023/11/09 01:33:47;;;;;;;3.05;1.08;;;;;;;14.65;76.70;100123.88;4982267;28;20031;-44
2023/11/09 01:36:15;;;;;;;2.47;0.73;;;;;;;14.76;75.72;100086.06;4983104;28;20085;-46
2023/11/09 01:38:42;;;;;;;5.13;0.90;;;;;;;14.57;76.25;100047.94;4985331;28;20117;-49
2023/11/09 01:41:08;;;;;;;3.50;0.90;;;;;;;14.67;76.01;100020.66;4983322;28;20034;-45
2023/11/09 01:43:34;;;;;;;3.17;0.90;;;;;;;14.39;76.68;100016.75;4982034;28;20084;-48
2023/11/09 01:46:00;;;;;;;1.70;0.80;;;;;;;14.23;76.55;100026.56;4982153;28;20038;-47
2023/11/09 01:48:26;;;;;;;5.82;0.90;;;;;;;14.43;75.92;100042.91;4984836;28;20034;-46
2023/11/09 01:50:52;;;;;;;3.35;0.88;;;;;;;14.15;77.04;100063.38;4985519;28;20085;-46
2023/11/09 01:53:19;;;;;;;4.25;0.80;;;;;;;13.85;78.33;100095.22;4981831;28;20092;-48
2023/11/09 01:55:44;;;;;;;4.68;0.88;;;;;;;14.05;77.99;100110.69;4982069;28;20468;-53
2023/11/09 01:58:11;;;;;;;4.72;1.20;;;;;;;14.08;77.71;100111.53;4981474;28;20055;-49
2023/11/09 02:00:38;;;;;;;2.65;0.90;;;;;;;14.40;76.45;100129.47;4985608;28;20034;-48
2023/11/09 02:03:05;;;;;;;2.55;1.10;;;;;;;14.31;76.87;100132.22;4985545;28;20031;-46
2023/11/09 02:05:31;;;;;;;2.92;0.93;;;;;;;14.48;76.04;100124.13;4985493;28;20068;-45
2023/11/09 02:07:56;;;;;;;2.78;0.90;;;;;;;14.35;76.43;100125.16;4984101;28;20117;-50
2023/11/09 02:10:22;;;;;;;4.03;0.90;;;;;;;14.50;76.10;100117.13;4983546;28;20178;-45
2023/11/09 02:12:48;;;;;;;3.55;0.90;;;;;;;14.55;76.02;100113.53;4983163;28;20104;-44
2023/11/09 02:15:14;;;;;;;5.57;1.00;;;;;;;14.54;76.02;100113.53;4984398;28;20490;-45
2023/11/09 02:17:40;;;;;;;3.40;1.00;;;;;;;14.35;76.71;100123.41;4986823;28;20178;-49
2023/11/09 02:20:06;;;;;;;3.92;0.98;;;;;;;14.41;76.75;100112.00;4985625;28;20120;-45
2023/11/09 02:22:32;;;;;;;3.92;1.00;;;;;;;14.40;76.76;100111.13;4982833;28;20034;-45
2023/11/09 02:24:58;;;;;;;2.35;0.82;;;;;;;14.31;76.85;100108.59;4983549;28;20034;-46
2023/11/09 02:27:23;;;;;;;3.97;0.82;;;;;;;14.12;77.77;100112.38;4985602;28;20532;-48
2023/11/09 02:29:49;;;;;;;5.30;0.90;;;;;;;14.36;77.29;100111.16;4985616;28;20410;-45
2023/11/09 02:32:14;;;;;;;2.33;0.80;;;;;;;14.54;76.68;100111.78;4982922;28;20039;-46
2023/11/09 02:34:39;;;;;;;4.32;1.42;;;;;;;14.57;76.29;100100.41;4981122;28;20081;-50
2023/11/09 02:37:09;;;;;;;4.57;1.23;;;;;;;14.42;76.54;100098.00;4980760;28;20034;-46
2023/11/09 02:39:35;;;;;;;5.53;1.50;;;;;;;14.45;76.63;100088.34;4984511;28;20088;-48
2023/11/09 02:42:01;;;;;;;2.88;1.20;;;;;;;14.51;76.46;100095.25;4984263;28;20038;-47
2023/11/09 02:44:26;;;;;;;4.05;1.20;;;;;;;14.61;76.09;100087.22;4980828;28;20030;-46
2023/11/09 02:46:52;;;;;;;6.30;1.30;;;;;;;14.65;75.92;100085.38;4980507;28;20578;-45
2023/11/09 02:49:17;;;;;;;4.95;1.35;;;;;;;14.61;76.05;100073.22;4981334;28;20039;-46
2023/11/09 02:51:42;;;;;;;2.67;1.10;;;;;;;14.68;75.68;100072.25;4983846;28;20034;-47
2023/11/09 02:54:08;;;;;;;3.65;1.40;;;;;;;14.34;76.34;100089.31;4982980;28;20042;-46
2023/11/09 02:56:33;;;;;;;7.03;1.38;;;;;;;14.40;76.17;100087.50;4980577;28;20039;-46
2023/11/09 02:58:59;;;;;;;5.13;1.33;;;;;;;14.55;75.90;100100.41;4980806;28;20067;-46
2023/11/09 03:01:24;;;;;;;6.10;1.55;;;;;;;14.48;76.35;100106.63;4982916;28;20081;-45
2023/11/09 03:03:52;;;;;;;4.78;1.60;;;;;;;14.40;76.55;100110.25;4983908;28;20191;-46
2023/11/09 03:06:19;;;;;;;5.93;1.50;;;;;;;14.34;76.50;100112.91;4981453;28;20069;-47
2023/11/09 03:08:44;;;;;;;7.20;1.60;;;;;;;14.60;76.08;100110.84;4980415;28;20061;-45
2023/11/09 03:11:10;;;;;;;3.97;1.67;;;;;;;14.69;75.66;100105.47;4979284;28;20066;-46
2023/11/09 03:13:39;;;;;;;5.72;1.70;;;;;;;14.56;75.89;100110.03;4991633;28;20026;-45
2023/11/09 03:16:08;;;;;;;5.95;1.80;;;;;;;14.60;75.70;100102.97;4982768;28;20038;-46
2023/11/09 03:18:34;;;;;;;7.45;1.70;;;;;;;14.29;76.70;100097.25;4980638;28;20129;-46
2023/11/09 03:21:00;;;;;;;7.63;1.90;;;;;;;14.38;76.16;100075.34;4980477;28;20126;-46
2023/11/09 03:23:26;;;;;;;7.57;1.85;;;;;;;14.23;76.57;100094.72;4982568;28;20031;-47
2023/11/09 03:25:52;;;;;;;11.27;2.00;;;;;;;14.16;77.34;100100.94;4983529;28;20470;-48
2023/11/09 03:28:18;;;;;;;5.93;1.63;;;;;;;14.25;76.93;100103.44;4981447;28;20054;-47
2023/11/09 03:30:43;;;;;;;7.00;1.80;;;;;;;14.20;76.96;100108.75;4978394;28;20039;-45
2023/11/09 03:33:08;;;;;;;9.13;1.77;;;;;;;14.24;76.87;100112.19;4979531;28;20445;-47
2023/11/09 03:35:34;;;;;;;4.72;1.60;;;;;;;14.42;76.35;100103.22;4983425;28;20046;-45
2023/11/09 03:37:59;;;;;;;9.55;1.90;;;;;;;14.11;76.93;100119.34;4983296;28;20035;-44
2023/11/09 03:40:24;;;;;;;9.70;1.80;;;;;;;14.20;77.18;100131.50;4979902;28;20031;-47
2023/11/09 03:42:50;;;;;;;13.82;2.40;;;;;;;14.21;77.26;100134.06;4979889;28;20031;-44
2023/11/09 03:45:15;;;;;;;12.00;1.88;;;;;;;13.92;78.04;100127.47;4980186;28;20085;-49
2023/11/09 03:47:41;;;;;;;14.45;1.80;;;;;;;13.64;78.82;100133.03;4982588;28;20096;-50
2023/11/09 03:50:07;;;;;;;9.77;2.00;;;;;;;13.80;78.93;100128.47;4982357;28;20038;-46
2023/11/09 03:52:32;;;;;;;6.35;1.75;;;;;;;14.09;77.15;100113.25;4979585;28;20061;-45
2023/11/09 03:54:57;;;;;;;10.13;1.73;;;;;;;13.86;78.07;100125.78;4979590;28;20497;-47
2023/11/09 03:57:23;;;;;;;7.72;1.70;;;;;;;14.18;76.86;100120.16;4981842;28;20070;-44
2023/11/09 03:59:48;;;;;;;8.35;1.50;;;;;;;13.91;76.78;100118.72;4982998;28;20113;-46
2023/11/09 04:02:13;;;;;;;7.07;1.80;;;;;;;13.99;77.28;100113.41;4982565;28;20338;-50
2023/11/09 04:04:39;;;;;;;7.68;1.60;;;;;;;14.03;77.05;100122.94;4984601;28;20038;-44
2023/11/09 04:07:04;;;;;;;10.07;1.30;;;;;;;14.08;76.56;100121.16;4983802;28;20046;-46
2023/11/09 04:09:30;;;;;;;8.70;1.80;;;;;;;13.93;76.70;100116.09;4987821;28;20034;-50
2023/11/09 04:11:55;;;;;;;10.20;2.13;;;;;;;13.96;77.45;100131.81;4984684;28;20054;-47
2023/11/09 04:14:20;;;;;;;4.85;1.75;;;;;;;14.16;76.40;100117.53;4979805;28;20118;-46
2023/11/09 04:16:46;;;;;;;8.75;1.73;;;;;;;14.00;76.54;100123.00;4979418;28;20081;-46
2023/11/09 04:19:11;;;;;;;9.73;1.60;;;;;;;14.17;76.34;100128.88;4979966;28;20061;-46
2023/11/09 04:21:37;;;;;;;6.47;1.60;;;;;;;14.23;75.91;100134.06;4982837;28;20054;-47
2023/11/09 04:24:04;;;;;;;7.28;1.80;;;;;;;14.01;76.09;100132.59;4982744;28;20038;-46
2023/11/09 04:26:32;;;;;;;10.55;2.03;;;;;;;13.83;76.89;100128.47;4982040;28;20408;-46
2023/11/09 04:28:59;;;;;;;8.02;1.92;;;;;;;14.02;76.41;100132.59;4983625;28;20035;-47
2023/11/09 04:31:26;;;;;;;10.30;2.10;;;;;;;13.99;76.46;100124.75;4981396;28;20516;-47
2023/11/09 04:33:54;;;;;;;11.88;2.00;;;;;;;13.99;76.08;100122.13;4982754;28;20050;-46
2023/11/09 04:36:23;;;;;;;7.28;1.80;;;;;;;14.16;75.57;100122.78;4980139;28;20133;-46
2023/11/09 04:38:48;;;;;;;11.02;2.00;;;;;;;14.19;75.48;100116.63;4979147;28;20122;-44
2023/11/09 04:41:16;;;;;;;11.73;2.13;;;;;;;14.06;76.08;100117.69;4980089;28;20117;-46
2023/11/09 04:43:42;;;;;;;9.65;2.00;;;;;;;13.82;76.90;100126.72;4983199;28;20039;-49
2023/11/09 04:46:15;;;;;;;12.02;2.40;;;;;;;13.74;77.75;100131.16;4983497;28;20072;-47
2023/11/09 04:48:45;;;;;;;8.88;2.40;;;;;;;13.99;76.72;100131.75;4981659;28;20041;-46
2023/11/09 04:51:20;;;;;;;8.48;1.90;;;;;;;13.98;76.60;100130.00;4974424;28;20502;-48
2023/11/09 04:53:51;;;;;;;9.15;2.15;;;;;;;14.05;76.17;100126.44;4974979;28;20756;-46
2023/11/09 04:56:32;;;;;;;13.52;2.13;;;;;;;14.00;75.87;100112.53;4983781;28;20516;-50
2023/11/09 05:06:48;;;;;;;11.93;2.22;;;;;;;14.18;75.62;100107.03;4987120;28;20055;-44
2023/11/09 05:07:17;;;;;;;8.77;1.95;;;;;;;13.94;75.78;100117.84;4984520;28;20045;-50
2023/11/09 05:09:46;;;;;;;9.35;2.10;;;;;;;13.93;75.51;100114.34;4983005;28;20043;-49
2023/11/09 05:12:12;;;;;;;6.30;2.00;;;;;;;14.01;75.38;100119.50;4983339;28;20034;-48
2023/11/09 05:14:37;;;;;;;13.32;2.20;;;;;;;13.98;75.41;100117.78;4986719;28;20036;-47
2023/11/09 05:17:02;;;;;;;13.73;2.72;;;;;;;14.05;75.02;100122.06;4986375;28;20547;-44
2023/11/09 05:19:28;;;;;;;11.65;2.58;;;;;;;14.06;75.17;100120.31;4982528;28;20482;-47
2023/11/09 05:21:53;;;;;;;12.85;2.67;;;;;;;14.00;75.35;100117.75;4983342;28;20575;-46
2023/11/09 05:24:18;;;;;;;13.80;2.80;;;;;;;13.92;75.71;100128.31;4984428;28;20030;-47
2023/11/09 05:26:46;;;;;;;11.05;2.65;;;;;;;13.92;75.63;100141.44;4986299;28;20064;-47
2023/11/09 05:29:11;;;;;;;11.60;3.00;;;;;;;13.65;76.57;100150.50;4987228;28;20137;-50
2023/11/09 05:31:37;;;;;;;12.50;3.20;;;;;;;13.87;75.88;100145.88;4992326;28;20086;-47
2023/11/09 05:34:04;;;;;;;14.95;3.25;;;;;;;13.92;75.44;100151.91;4984303;28;20126;-45
2023/11/09 05:36:30;;;;;;;13.50;3.60;;;;;;;13.60;76.77;100149.63;4991134;28;20114;-45
2023/11/09 05:38:55;;;;;;;9.60;3.53;;;;;;;13.88;75.57;100144.97;4989334;28;20509;-49
2023/11/09 05:41:21;;;;;;;13.73;3.60;;;;;;;13.75;75.68;100138.16;4983009;28;20040;-45
2023/11/09 05:43:46;;;;;;;14.20;3.90;;;;;;;13.67;75.65;100139.97;4982574;28;20038;-47
2023/11/09 05:46:11;;;;;;;14.00;3.75;;;;;;;13.67;75.98;100137.34;4982024;28;20035;-44
2023/11/09 05:48:37;;;;;;;11.65;3.60;;;;;;;13.81;75.07;100146.81;4984118;28;20447;-48
2023/11/09 05:51:03;;;;;;;14.25;3.70;;;;;;;13.80;74.94;100150.31;4985654;28;20050;-46
2023/11/09 05:53:28;;;;;;;11.38;3.70;;;;;;;13.61;75.20;100147.91;4981885;28;21314;-52
2023/11/09 05:55:54;;;;;;;11.95;3.83;;;;;;;13.63;74.88;100152.25;4981078;28;20054;-47
2023/11/09 05:58:19;;;;;;;14.65;3.67;;;;;;;13.60;74.66;100146.19;4984091;28;20105;-46
2023/11/09 06:00:44;;;;;;;12.63;3.67;;;;;;;13.56;74.84;100145.31;4985164;28;20039;-49
2023/11/09 06:03:10;;;;;;;16.90;4.07;;;;;;;13.44;75.37;100148.06;4983692;28;20676;-46
2023/11/09 06:05:38;;;;;;;17.30;3.80;;;;;;;13.43;75.72;100148.94;4981892;28;20030;-45
2023/11/09 06:08:04;;;;;;;15.00;3.60;;;;;;;13.38;75.74;100150.75;4980246;28;20043;-48
2023/11/09 06:10:30;;;;;;;18.75;4.10;;;;;;;13.54;74.68;100157.56;4981271;28;20041;-49
2023/11/09 06:12:55;;;;;;;19.23;3.95;;;;;;;13.51;74.18;100152.38;4982285;28;20128;-48
2023/11/09 06:15:21;;;;;;;17.42;3.90;;;;;;;13.38;73.95;100159.47;4984290;28;20062;-46
2023/11/09 06:17:46;;;;;;;15.70;3.60;;;;;;;13.31;74.50;100159.53;4986054;28;20109;-44
2023/11/09 06:20:12;;;;;;;15.00;3.90;;;;;;;13.26;74.28;100161.34;4983506;28;20038;-46
2023/11/09 06:22:40;;;;;;;15.93;3.70;;;;;;;13.18;74.49;100165.75;4982477;28;20085;-45
2023/11/09 06:25:06;;;;;;;12.93;3.92;;;;;;;13.19;73.76;100163.13;4975345;28;20049;-45
2023/11/09 06:27:31;;;;;;;13.55;3.75;;;;;;;13.01;74.15;100166.75;4975137;28;20031;-45
2023/11/09 06:29:57;;;;;;;15.80;3.95;;;;;;;13.01;73.58;100164.13;4975608;28;20038;-45
2023/11/09 06:32:22;;;;;;;13.02;3.80;;;;;;;12.97;73.36;100167.66;4974604;28;20031;-46
2023/11/09 06:34:48;;;;;;;16.02;4.30;;;;;;;12.93;73.27;100165.91;4974171;28;20174;-46
2023/11/09 06:37:13;;;;;;;15.13;4.30;;;;;;;12.89;73.39;100163.34;4972684;28;20149;-45
2023/11/09 06:39:43;;;;;;;10.55;4.40;;;;;;;12.81;73.62;100166.00;4974063;28;20055;-45
2023/11/09 06:42:11;;;;;;;13.20;4.70;;;;;;;12.80;73.55;100172.16;4975419;28;20524;-45
2023/11/09 06:44:36;;;;;;;13.45;4.50;;;;;;;12.56;75.24;100180.16;4976493;28;20117;-48
2023/11/09 06:47:02;;;;;;;16.95;4.20;;;;;;;12.67;73.93;100178.34;5000808;23;20126;-49
2023/11/09 06:49:27;;;;;;;16.67;4.30;;;;;;;12.58;74.32;100183.59;4991079;28;20618;-44
2023/11/09 06:51:53;;;;;;;17.95;4.60;;;;;;;12.68;73.64;100184.44;4991723;28;20048;-44
2023/11/09 06:54:18;;;;;;;13.43;4.15;;;;;;;12.67;73.35;100185.31;4990815;28;20049;-44
2023/11/09 06:56:44;;;;;;;11.40;3.97;;;;;;;12.62;72.86;100184.47;4991304;28;20030;-44
2023/11/09 06:59:10;;;;;;;18.15;4.68;;;;;;;12.55;73.69;100186.25;4990977;28;20073;-48
2023/11/09 07:01:35;;;;;;;17.25;4.15;;;;;;;12.60;73.23;100182.72;4991636;28;20034;-46
2023/11/09 07:04:01;;;;;;;17.58;3.83;;;;;;;12.64;73.38;100186.19;4991352;28;20049;-46
2023/11/09 07:06:28;;;;;;;12.60;3.97;;;;;;;12.67;73.63;100186.19;4990742;28;20125;-44
2023/11/09 07:08:54;;;;;;;17.98;3.97;;;;;;;12.67;74.00;100180.06;4991256;28;20048;-44
2023/11/09 07:11:19;;;;;;;13.88;3.80;;;;;;;12.73;73.61;100183.53;4990039;28;20121;-44
2023/11/09 07:13:46;;;;;;;9.82;3.78;;;;;;;12.74;73.44;100190.50;4990789;28;20158;-48
2023/11/09 07:16:11;;;;;;;18.05;3.97;;;;;;;12.70;73.77;100193.97;4990453;28;20125;-46
2023/11/09 07:18:36;;;;;;;17.75;4.05;;;;;;;12.75;73.86;100193.94;4991031;28;20469;-44
2023/11/09 07:21:02;;;;;;;17.33;4.50;;;;;;;12.78;74.04;100192.19;4991108;28;20049;-46
2023/11/09 07:23:28;;;;;;;13.63;3.95;;;;;;;12.86;74.05;100198.25;4990476;28;20045;-43
2023/11/09 07:25:54;;;;;;;16.50;3.50;;;;;;;12.95;74.19;100198.19;4990815;28;20660;-47
2023/11/09 07:28:20;;;;;;;20.33;4.05;;;;;;;12.93;74.39;100193.81;4989997;28;20062;-44
2023/11/09 07:30:48;;;;;;;16.00;4.13;;;;;;;12.94;74.28;100196.44;4990849;28;20125;-44
2023/11/09 07:33:14;;;;;;;14.00;3.83;;;;;;;12.91;74.45;100193.00;4989892;28;20030;-46
2023/11/09 07:35:46;;;;;;;18.15;3.70;;;;;;;12.83;75.03;100203.50;4990646;28;20040;-43
2023/11/09 07:38:13;;;;;;;16.20;4.15;;;;;;;13.00;74.71;100191.16;4990176;28;20501;-46
2023/11/09 07:40:39;;;;;;;13.90;3.67;;;;;;;12.97;74.89;100198.19;4990413;28;20030;-48
2023/11/09 07:43:05;;;;;;;18.13;3.92;;;;;;;13.07;74.77;100202.47;4990297;28;20038;-45
2023/11/09 07:45:30;;;;;;;22.30;3.92;;;;;;;13.07;74.61;100199.84;4990479;28;20039;-44
2023/11/09 07:47:55;;;;;;;19.05;3.80;;;;;;;13.25;74.83;100204.97;4972649;28;20042;-44
2023/11/09 07:50:21;;;;;;;18.55;3.83;;;;;;;13.20;74.58;100206.75;4989962;28;20049;-44
2023/11/09 07:52:47;;;;;;;19.52;3.78;;;;;;;13.20;74.68;100201.53;4990609;28;20038;-44
2023/11/09 07:55:15;;;;;;;20.27;3.47;;;;;;;13.40;74.83;100203.97;4989845;28;20042;-44
2023/11/09 07:57:40;;;;;;;19.48;3.88;;;;;;;13.50;74.69;100195.16;4990178;28;20038;-43
2023/11/09 08:00:10;;;;;;;13.80;3.40;;;;;;;13.33;73.69;100205.78;4990021;28;20443;-45
2023/11/09 08:02:37;;;;;;;12.15;3.38;;;;;;;13.58;74.04;100205.56;4990281;28;20035;-48
2023/11/09 08:05:04;;;;;;;17.70;3.60;;;;;;;13.62;73.53;100200.25;4990323;28;20518;-45
2023/11/09 08:07:30;;;;;;;17.58;3.47;;;;;;;13.67;73.37;100197.59;4990192;28;20122;-43
2023/11/09 08:09:55;;;;;;;16.45;3.25;;;;;;;13.64;72.96;100197.63;4990778;28;20449;-48
2023/11/09 08:12:23;;;;;;;14.88;3.58;;;;;;;13.62;72.91;100195.03;4990718;28;20038;-50
2023/11/09 08:14:48;;;;;;;19.33;3.72;;;;;;;13.63;72.52;100190.66;4991534;28;20034;-45
2023/11/09 08:17:14;;;;;;;13.77;3.30;;;;;;;13.66;72.30;100188.88;4989636;28;20037;-44
2023/11/09 08:19:39;;;;;;;12.88;3.60;;;;;;;13.70;72.40;100193.22;4989583;28;20033;-45
2023/11/09 08:22:04;;;;;;;16.45;3.25;;;;;;;13.73;72.32;100190.53;4989384;28;20026;-47
2023/11/09 08:24:30;;;;;;;19.02;3.35;;;;;;;13.80;72.06;100189.59;4989560;28;20034;-41
2023/11/09 08:26:55;;;;;;;22.65;3.30;;;;;;;13.85;72.11;100192.16;4989617;28;20125;-46
2023/11/09 08:29:20;;;;;;;14.15;3.10;;;;;;;13.64;70.75;100195.03;4989921;28;20054;-46
2023/11/09 08:31:47;;;;;;;10.90;3.10;;;;;;;13.84;71.84;100197.44;4990697;28;20386;-47
2023/11/09 08:34:12;;;;;;;16.10;2.95;;;;;;;13.89;71.78;100198.25;4990857;28;20122;-44
2023/11/09 08:36:38;;;;;;;15.32;3.08;;;;;;;13.95;71.25;100198.19;4990539;28;20122;-43
2023/11/09 08:39:09;;;;;;;14.80;3.30;;;;;;;14.06;71.23;100199.81;4986211;28;20636;-43
2023/11/09 08:41:34;;;;;;;15.55;3.05;;;;;;;14.06;70.57;100204.19;4989677;28;20042;-45
2023/11/09 08:43:59;;;;;;;15.82;2.65;;;;;;;14.13;70.02;100198.84;4989513;28;20089;-46
2023/11/09 08:46:24;;;;;;;13.45;3.03;;;;;;;14.25;70.20;100192.59;4990078;28;20039;-43
2023/11/09 08:48:50;;;;;;;17.58;3.08;;;;;;;14.10;68.18;100191.00;4989848;28;20039;-47
2023/11/09 08:51:15;;;;;;;14.93;2.90;;;;;;;14.11;68.92;100190.13;4989703;28;20049;-45
2023/11/09 08:53:41;;;;;;;13.63;2.78;;;;;;;14.24;68.17;100185.59;4989526;28;20492;-44
2023/11/09 08:56:06;;;;;;;13.77;2.90;;;;;;;14.07;66.55;100192.81;4988952;28;20560;-45
2023/11/09 08:58:36;;;;;;;9.60;2.40;;;;;;;14.16;68.06;100184.81;4989233;28;20092;-44
2023/11/09 09:01:04;;;;;;;14.88;3.10;;;;;;;14.27;66.71;100182.97;4989706;28;20042;-45
2023/11/09 09:03:32;;;;;;;11.70;2.75;;;;;;;14.18;66.92;100185.69;4989140;28;20042;-43
2023/11/09 09:05:58;;;;;;;13.15;2.78;;;;;;;14.13;66.76;100188.38;4989306;28;20045;-46
2023/11/09 09:08:26;;;;;;;28.05;11.30;;;;;;;14.49;66.90;100183.56;4989080;28;20046;-43
2023/11/09 09:10:56;;;;;;;21.08;6.57;;;;;;;14.38;66.32;100188.09;4989395;28;20492;-44
2023/11/09 09:13:23;;;;;;;13.38;4.18;;;;;;;14.52;66.38;100187.00;4988982;28;20058;-43
2023/11/09 09:15:49;;;;;;;18.77;5.90;;;;;;;14.56;66.40;100183.47;4989394;28;20045;-40
2023/11/09 09:18:14;;;;;;;11.88;4.63;;;;;;;14.66;66.29;100184.19;4974138;28;20046;-45
2023/11/09 09:20:40;;;;;;;13.88;3.60;;;;;;;14.55;65.57;100180.88;4980201;28;20037;-45
2023/11/09 09:23:07;;;;;;;12.63;3.25;;;;;;;14.73;66.16;100179.72;4988800;28;20510;-48
2023/11/09 09:25:33;;;;;;;15.45;4.18;;;;;;;14.61;65.54;100173.78;4989471;28;20041;-44
2023/11/09 09:28:01;;;;;;;15.80;3.28;;;;;;;14.75;65.26;100170.09;4989070;28;20117;-43
2023/11/09 09:30:26;;;;;;;12.18;2.90;;;;;;;14.78;64.50;100160.41;4989973;28;20062;-45
2023/11/09 09:32:53;;;;;;;16.75;3.00;;;;;;;14.61;64.48;100165.91;4992809;28;20739;-46
2023/11/09 09:35:20;;;;;;;13.65;3.30;;;;;;;14.77;64.47;100149.91;4991912;28;20041;-49
2023/11/09 09:37:46;;;;;;;14.88;2.70;;;;;;;14.89;64.62;100158.47;4992571;28;20030;-44
2023/11/09 09:40:17;;;;;;;13.35;2.83;;;;;;;14.61;64.07;100144.91;4992044;28;20042;-44
2023/11/09 09:42:46;;;;;;;15.27;3.00;;;;;;;14.69;64.12;100152.69;4992469;28;20125;-47
2023/11/09 09:45:22;;;;;;;17.17;2.50;;;;;;;14.72;64.01;100154.38;4991970;28;20043;-44
2023/11/09 09:47:53;;;;;;;17.63;2.65;;;;;;;14.25;65.10;100155.00;4991910;28;20093;-45
2023/11/09 09:50:22;;;;;;;12.77;2.25;;;;;;;14.67;63.71;100158.84;4992317;28;20062;-43
2023/11/09 09:52:50;;;;;;;14.70;3.45;;;;;;;14.68;64.04;100174.56;4992457;28;20097;-47
2023/11/09 09:55:18;;;;;;;13.73;2.47;;;;;;;14.86;62.93;100165.53;4991870;28;20121;-45
2023/11/09 09:57:44;;;;;;;12.77;2.72;;;;;;;14.60;63.65;100174.66;4992270;28;20027;-45
2023/11/09 10:00:13;;;;;;;16.45;2.88;;;;;;;14.94;63.08;100172.38;4991788;28;20081;-45
2023/11/09 10:02:40;;;;;;;15.85;2.83;;;;;;;14.92;62.71;100174.19;4992188;28;20041;-47
2023/11/09 10:05:11;;;;;;;12.20;2.90;;;;;;;14.85;63.15;100176.94;4991387;28;20038;-49
2023/11/09 10:07:56;;;;;;;11.98;2.53;;;;;;;14.86;63.55;100174.28;4992347;28;20037;-49
2023/11/09 10:10:21;;;;;;;;;;;;;;;15.04;62.15;100170.50;4991838;28;20030;-45
2023/11/09 10:12:46;;;;;;;16.58;3.05;;;;;;;14.71;62.55;100181.50;4991735;28;19920;-46
2023/11/09 10:15:15;;;;;;;18.08;2.85;;;;;;;14.35;61.10;100180.22;4991668;28;20042;-48
2023/11/09 10:17:41;;;;;;;18.88;2.92;;;;;;;14.45;62.30;100174.00;4991871;28;20528;-45
2023/11/09 10:20:14;;;;;;;13.13;2.63;;;;;;;14.78;61.76;100167.41;4991283;28;20034;-48
2023/11/09 10:22:39;;;;;;;15.80;2.63;;;;;;;14.59;61.27;100180.78;4992027;28;20113;-45
2023/11/09 10:25:05;;;;;;;13.13;3.17;;;;;;;15.08;60.50;100181.81;4991831;28;20450;-46
2023/11/09 10:27:31;;;;;;;14.15;2.50;;;;;;;14.80;61.48;100181.38;4991561;28;20678;-44
2023/11/09 10:29:56;;;;;;;16.75;2.67;;;;;;;15.18;61.03;100173.78;4992380;28;20089;-44
2023/11/09 10:32:22;;;;;;;15.32;2.78;;;;;;;15.43;59.76;100161.94;4992458;28;20057;-46
2023/11/09 10:34:50;;;;;;;20.38;2.67;;;;;;;15.03;59.43;100166.13;4992384;28;20151;-45
2023/11/09 10:37:17;;;;;;;10.63;2.35;;;;;;;15.26;58.10;100160.50;4992168;28;20034;-45
2023/11/09 10:39:46;;;;;;;13.82;2.58;;;;;;;15.38;58.21;100160.28;4992596;28;20038;-44
2023/11/09 10:42:13;;;;;;;15.02;2.60;;;;;;;15.61;57.50;100154.69;4991273;28;20513;-45
2023/11/09 10:44:42;;;;;;;15.75;2.95;;;;;;;15.70;56.77;100146.59;4991879;28;20120;-46
2023/11/09 10:47:08;;;;;;;15.63;2.85;;;;;;;15.19;56.36;100137.84;4990795;28;20067;-51
2023/11/09 10:49:35;;;;;;;13.45;2.53;;;;;;;15.50;57.45;100138.19;4991758;28;20038;-45
2023/11/09 10:52:01;;;;;;;15.60;2.50;;;;;;;15.28;56.81;100137.72;4991590;28;20038;-45
2023/11/09 10:54:27;;;;;;;17.48;2.80;;;;;;;14.81;58.31;100136.75;4990990;28;20035;-46
2023/11/09 10:56:59;;;;;;;14.68;2.55;;;;;;;15.47;58.11;100128.63;4991670;28;20035;-45
2023/11/09 10:59:24;;;;;;;16.58;3.30;;;;;;;15.70;56.50;100123.81;4991118;28;20043;-45
2023/11/09 11:01:59;;;;;;;11.10;2.40;;;;;;;15.67;55.47;100131.78;4991484;28;20038;-47
2023/11/09 11:04:26;;;;;;;12.05;2.20;;;;;;;15.63;54.54;100119.56;4990752;28;20121;-52
2023/11/09 11:06:56;;;;;;;17.45;2.15;;;;;;;15.20;55.51;100119.47;4991584;28;20038;-44
2023/11/09 11:09:26;;;;;;;16.85;2.80;;;;;;;15.76;54.26;100110.56;4990836;28;20104;-46
2023/11/09 11:11:55;;;;;;;8.20;2.20;;;;;;;15.61;53.55;100108.25;4991432;28;20034;-45
2023/11/09 11:14:23;;;;;;;13.55;2.53;;;;;;;15.36;54.05;100099.06;4991038;28;20046;-48
2023/11/09 11:17:00;;;;;;;14.98;2.38;;;;;;;15.09;54.70;100097.78;4991373;28;20432;-47
2023/11/09 11:19:47;;;;;;;17.10;2.30;;;;;;;15.31;53.40;100093.00;4990921;28;20121;-44
2023/11/09 11:23:03;;;;;;;11.02;2.10;;;;;;;15.36;53.75;100083.31;4990952;28;20096;-48
2023/11/09 11:25:50;;;;;;;13.57;2.13;;;;;;;15.52;52.40;100068.09;4911883;29;20052;-49